createdAt,value
2022-08-07T00:00:12.617Z,17.90
2022-08-07T00:02:44.112Z,17.90
2022-08-07T00:05:11.214Z,17.80
2022-08-07T00:07:41.248Z,17.80
2022-08-07T00:10:27.095Z,17.70
2022-08-07T00:13:00.001Z,17.70
2022-08-07T00:15:37.798Z,17.70
2022-08-07T00:18:05.024Z,17.70
2022-08-07T00:20:34.426Z,17.60
2022-08-07T00:23:01.953Z,17.60
2022-08-07T00:25:28.427Z,17.50
2022-08-07T00:28:04.081Z,17.50
2022-08-07T00:30:31.407Z,17.50
2022-08-07T00:32:58.459Z,17.50
2022-08-07T00:35:25.036Z,17.40
2022-08-07T00:37:51.491Z,17.40
2022-08-07T00:40:40.191Z,17.40
2022-08-07T00:43:04.429Z,17.40
2022-08-07T00:45:36.555Z,17.40
2022-08-07T00:48:09.587Z,17.40
2022-08-07T00:50:51.384Z,17.30
2022-08-07T00:53:18.197Z,17.30
2022-08-07T00:56:02.117Z,17.30
2022-08-07T00:58:28.934Z,17.30
2022-08-07T01:00:55.396Z,17.20
2022-08-07T01:03:54.583Z,17.10
2022-08-07T01:06:08.666Z,17.10
2022-08-07T01:08:35.142Z,17.00
2022-08-07T01:11:10.770Z,17.00
2022-08-07T01:13:55.722Z,16.90
2022-08-07T01:16:30.385Z,16.90
2022-08-07T01:18:57.316Z,16.90
2022-08-07T01:21:26.088Z,16.90
2022-08-07T01:23:53.439Z,16.90
2022-08-07T01:26:20.306Z,16.90
2022-08-07T01:28:48.490Z,16.90
2022-08-07T01:31:15.393Z,16.90
2022-08-07T01:33:53.613Z,16.90
2022-08-07T01:36:34.094Z,16.90
2022-08-07T01:39:09.425Z,16.90
2022-08-07T01:41:36.771Z,16.90
2022-08-07T01:44:04.896Z,16.90
2022-08-07T01:46:31.356Z,17.00
2022-08-07T01:48:58.035Z,16.90
2022-08-07T01:52:04.109Z,16.90
2022-08-07T01:54:32.555Z,16.90
2022-08-07T01:56:59.383Z,16.90
2022-08-07T01:59:30.884Z,16.80
2022-08-07T02:02:02.646Z,16.80
2022-08-07T02:04:31.943Z,16.80
2022-08-07T02:06:58.449Z,16.80
2022-08-07T02:09:52.087Z,16.80
2022-08-07T02:12:11.825Z,16.80
2022-08-07T02:14:44.188Z,16.80
2022-08-07T02:17:13.071Z,16.80
2022-08-07T02:20:05.156Z,16.80
2022-08-07T02:22:38.294Z,16.70
2022-08-07T02:25:13.832Z,16.70
2022-08-07T02:27:44.041Z,16.70
2022-08-07T02:30:17.805Z,16.60
2022-08-07T02:33:00.751Z,16.60
2022-08-07T02:36:28.872Z,16.60
2022-08-07T02:38:18.658Z,16.60
2022-08-07T02:40:53.845Z,16.60
2022-08-07T02:43:22.009Z,16.60
2022-08-07T02:45:59.117Z,16.60
2022-08-07T02:48:28.310Z,16.50
2022-08-07T02:50:54.890Z,16.50
2022-08-07T02:53:21.563Z,16.50
2022-08-07T02:56:02.129Z,16.40
2022-08-07T02:58:33.321Z,16.40
2022-08-07T03:01:00.240Z,16.40
2022-08-07T03:03:29.645Z,16.30
2022-08-07T03:06:16.242Z,16.30
2022-08-07T03:08:43.237Z,16.30
2022-08-07T03:11:09.703Z,16.30
2022-08-07T03:13:39.136Z,16.30
2022-08-07T03:16:16.097Z,16.30
2022-08-07T03:18:44.671Z,16.20
2022-08-07T03:21:14.178Z,16.20
2022-08-07T03:24:20.999Z,16.20
2022-08-07T03:26:31.924Z,16.20
2022-08-07T03:28:58.420Z,16.20
2022-08-07T03:31:42.103Z,16.20
2022-08-07T03:34:10.147Z,16.20
2022-08-07T03:36:45.396Z,16.20
2022-08-07T03:39:11.940Z,16.20
2022-08-07T03:41:42.410Z,16.20
2022-08-07T03:44:15.338Z,16.20
2022-08-07T03:47:13.122Z,16.20
2022-08-07T03:49:28.385Z,16.10
2022-08-07T03:52:00.982Z,16.10
2022-08-07T03:54:36.344Z,16.10
2022-08-07T03:58:35.502Z,16.10
2022-08-07T04:00:01.647Z,16.10
2022-08-07T04:02:30.394Z,16.10
2022-08-07T04:04:58.173Z,16.10
2022-08-07T04:07:25.498Z,16.10
2022-08-07T04:10:02.883Z,16.10
2022-08-07T04:12:29.514Z,16.10
2022-08-07T04:14:56.299Z,16.10
2022-08-07T04:17:22.810Z,16.10
2022-08-07T04:20:09.254Z,16.10
2022-08-07T04:22:35.722Z,16.10
2022-08-07T04:25:02.337Z,16.10
2022-08-07T04:27:28.880Z,16.20
2022-08-07T04:30:04.502Z,16.20
2022-08-07T04:32:34.692Z,16.20
2022-08-07T04:35:01.621Z,16.20
2022-08-07T04:37:30.526Z,16.20
2022-08-07T04:40:16.944Z,16.20
2022-08-07T04:42:46.163Z,16.20
2022-08-07T04:45:44.487Z,16.20
2022-08-07T04:48:05.984Z,16.10
2022-08-07T04:50:36.998Z,16.20
2022-08-07T04:53:03.490Z,16.30
2022-08-07T04:58:15.330Z,16.20
2022-08-07T04:58:33.842Z,16.30
2022-08-07T05:01:02.903Z,16.30
2022-08-07T05:04:00.590Z,16.30
2022-08-07T05:06:19.138Z,16.20
2022-08-07T05:09:00.958Z,16.30
2022-08-07T05:11:58.316Z,16.30
2022-08-07T05:14:52.440Z,16.30
2022-08-07T05:17:01.441Z,16.30
2022-08-07T05:19:44.005Z,16.30
2022-08-07T05:22:11.141Z,16.30
2022-08-07T05:24:40.307Z,16.40
2022-08-07T05:27:07.172Z,16.40
2022-08-07T05:29:50.959Z,16.40
2022-08-07T05:32:18.465Z,16.50
2022-08-07T05:34:46.334Z,16.50
2022-08-07T05:37:13.132Z,16.60
2022-08-07T05:40:17.227Z,16.60
2022-08-07T05:42:34.668Z,16.60
2022-08-07T05:45:14.475Z,16.70
2022-08-07T05:48:01.617Z,16.80
2022-08-07T05:50:29.268Z,16.90
2022-08-07T05:52:55.901Z,16.90
2022-08-07T05:55:22.353Z,17.00
2022-08-07T05:57:49.393Z,17.00
2022-08-07T06:00:17.843Z,17.00
2022-08-07T06:02:44.470Z,17.10
2022-08-07T06:05:15.694Z,17.10
2022-08-07T06:07:42.513Z,17.00
2022-08-07T06:10:28.949Z,17.10
2022-08-07T06:12:55.771Z,17.20
2022-08-07T06:15:22.235Z,17.20
2022-08-07T06:18:06.043Z,17.30
2022-08-07T06:20:50.011Z,17.40
2022-08-07T06:23:46.084Z,17.50
2022-08-07T06:26:05.402Z,17.50
2022-08-07T06:28:33.639Z,17.60
2022-08-07T06:31:00.115Z,17.60
2022-08-07T06:33:26.598Z,17.70
2022-08-07T06:36:12.427Z,17.70
2022-08-07T06:38:39.549Z,17.80
2022-08-07T06:42:00.866Z,17.90
2022-08-07T06:44:11.869Z,18.00
2022-08-07T06:46:39.999Z,18.00
2022-08-07T06:49:06.519Z,18.10
2022-08-07T06:51:33.905Z,18.20
2022-08-07T06:55:28.865Z,18.30
2022-08-07T06:56:49.489Z,18.40
2022-08-07T07:00:11.647Z,18.50
2022-08-07T07:02:03.076Z,18.60
2022-08-07T07:04:32.817Z,18.60
2022-08-07T07:07:01.337Z,18.60
2022-08-07T07:09:31.408Z,18.70
2022-08-07T07:12:07.443Z,18.80
2022-08-07T07:14:43.170Z,18.80
2022-08-07T07:17:10.644Z,18.90
2022-08-07T07:19:57.329Z,19.00
2022-08-07T07:22:37.048Z,19.10
2022-08-07T07:26:31.498Z,19.20
2022-08-07T07:28:03.287Z,19.20
2022-08-07T07:30:39.598Z,19.30
2022-08-07T07:33:06.660Z,19.40
2022-08-07T07:35:54.080Z,19.40
2022-08-07T07:38:20.757Z,19.50
2022-08-07T07:40:47.953Z,19.60
2022-08-07T07:43:18.360Z,19.70
2022-08-07T07:46:38.176Z,19.90
2022-08-07T07:48:35.789Z,20.00
2022-08-07T07:51:02.678Z,20.20
2022-08-07T07:53:34.952Z,20.30
2022-08-07T07:56:01.546Z,20.40
2022-08-07T07:58:28.038Z,20.50
2022-08-07T08:00:54.501Z,20.60
2022-08-07T08:04:06.545Z,20.70
2022-08-07T08:06:08.202Z,20.90
2022-08-07T08:08:39.542Z,21.10
2022-08-07T08:11:13.582Z,21.30
2022-08-07T08:13:53.782Z,21.50
2022-08-07T08:16:24.965Z,21.80
2022-08-07T08:18:51.874Z,22.00
2022-08-07T08:21:18.326Z,22.30
2022-08-07T08:23:45.696Z,22.50
2022-08-07T08:26:12.680Z,22.80
2022-08-07T08:28:45.189Z,23.00
2022-08-07T08:31:15.991Z,23.20
2022-08-07T08:33:49.059Z,23.50
2022-08-07T08:36:16.690Z,23.80
2022-08-07T08:38:43.412Z,24.10
2022-08-07T08:41:11.972Z,24.30
2022-08-07T08:43:42.444Z,24.60
2022-08-07T08:46:09.813Z,24.80
2022-08-07T08:48:38.401Z,25.00
2022-08-07T08:51:14.368Z,25.30
2022-08-07T08:53:49.671Z,25.50
2022-08-07T08:56:16.992Z,25.60
2022-08-07T08:58:43.951Z,25.80
2022-08-07T09:01:15.216Z,25.90
2022-08-07T09:03:49.854Z,26.10
2022-08-07T09:06:19.560Z,26.30
2022-08-07T09:08:46.814Z,26.40
2022-08-07T09:11:14.004Z,26.70
2022-08-07T09:13:51.541Z,26.80
2022-08-07T09:16:23.678Z,26.90
2022-08-07T09:18:58.777Z,26.90
2022-08-07T09:21:58.189Z,27.00
2022-08-07T09:24:31.270Z,27.10
2022-08-07T09:26:58.353Z,27.30
2022-08-07T09:30:04.645Z,27.50
2022-08-07T09:32:18.834Z,27.70
2022-08-07T09:34:53.839Z,27.80
2022-08-07T09:37:20.809Z,27.90
2022-08-07T09:40:07.186Z,28.10
2022-08-07T09:42:35.284Z,28.30
2022-08-07T09:46:28.712Z,28.50
2022-08-07T09:47:59.590Z,28.60
2022-08-07T09:50:30.016Z,28.70
2022-08-07T09:52:56.798Z,28.90
2022-08-07T09:56:02.771Z,29.10
2022-08-07T09:58:09.740Z,29.10
2022-08-07T10:00:38.088Z,29.20
2022-08-07T10:03:08.343Z,29.20
2022-08-07T10:05:59.419Z,29.20
2022-08-07T10:08:27.847Z,29.20
2022-08-07T10:12:00.249Z,29.20
2022-08-07T10:14:00.570Z,29.30
2022-08-07T10:16:28.546Z,29.50
2022-08-07T10:18:55.085Z,29.70
2022-08-07T10:22:14.276Z,29.90
2022-08-07T10:24:08.487Z,30.20
2022-08-07T10:26:35.309Z,30.50
2022-08-07T10:29:01.780Z,30.60
2022-08-07T10:31:28.250Z,30.70
2022-08-07T10:34:06.524Z,30.70
2022-08-07T10:36:42.073Z,30.90
2022-08-07T10:39:12.038Z,30.90
2022-08-07T10:41:51.350Z,30.70
2022-08-07T10:44:37.364Z,30.70
2022-08-07T10:47:11.534Z,30.60
2022-08-07T10:49:49.209Z,30.70
2022-08-07T10:52:17.611Z,30.80
2022-08-07T10:54:53.141Z,30.80
2022-08-07T10:57:21.673Z,30.90
2022-08-07T11:00:00.657Z,31.00
2022-08-07T11:02:34.336Z,31.20
2022-08-07T11:05:08.543Z,31.30
2022-08-07T11:07:59.237Z,31.00
2022-08-07T11:10:27.333Z,30.70
2022-08-07T11:13:02.059Z,30.60
2022-08-07T11:15:31.469Z,30.90
2022-08-07T11:18:03.418Z,30.90
2022-08-07T11:20:30.906Z,30.60
2022-08-07T11:22:57.366Z,30.30
2022-08-07T11:25:23.843Z,30.10
2022-08-07T11:28:03.026Z,30.20
2022-08-07T11:30:41.930Z,30.60
2022-08-07T11:33:14.222Z,30.90
2022-08-07T11:36:00.272Z,31.20
2022-08-07T11:38:28.131Z,31.30
2022-08-07T11:40:54.881Z,31.30
2022-08-07T11:43:41.239Z,31.30
2022-08-07T11:46:09.306Z,31.40
2022-08-07T11:48:35.844Z,31.50
2022-08-07T11:51:04.066Z,31.60
2022-08-07T11:53:35.669Z,31.90
2022-08-07T11:56:26.168Z,32.30
2022-08-07T11:58:49.693Z,32.50
2022-08-07T12:01:20.398Z,32.80
2022-08-07T12:03:48.755Z,33.10
2022-08-07T12:06:39.960Z,33.20
2022-08-07T12:09:01.754Z,33.10
2022-08-07T12:11:32.404Z,33.20
2022-08-07T12:13:59.163Z,33.10
2022-08-07T12:16:29.949Z,33.20
2022-08-07T12:18:57.263Z,33.30
2022-08-07T12:21:55.079Z,33.40
2022-08-07T12:24:12.481Z,33.50
2022-08-07T12:26:56.638Z,33.70
2022-08-07T12:29:37.504Z,33.80
2022-08-07T12:32:12.084Z,34.00
2022-08-07T12:34:39.182Z,34.10
2022-08-07T12:37:08.234Z,34.40
2022-08-07T12:39:51.006Z,34.40
2022-08-07T12:42:18.056Z,34.40
2022-08-07T12:44:53.893Z,34.50
2022-08-07T12:47:27.128Z,34.60
2022-08-07T12:50:04.345Z,34.60
2022-08-07T12:52:34.146Z,34.50
2022-08-07T12:55:05.251Z,34.40
2022-08-07T12:57:39.004Z,34.20
2022-08-07T13:00:26.083Z,34.20
2022-08-07T13:02:57.637Z,34.20
2022-08-07T13:06:02.550Z,34.30
2022-08-07T13:08:11.958Z,34.40
2022-08-07T13:10:51.644Z,34.40
2022-08-07T13:13:48.535Z,34.60
2022-08-07T13:16:05.285Z,34.50
2022-08-07T13:18:34.206Z,34.60
2022-08-07T13:21:00.874Z,34.60
2022-08-07T13:24:00.634Z,34.60
2022-08-07T13:26:18.195Z,34.70
2022-08-07T13:28:44.900Z,34.70
2022-08-07T13:31:13.376Z,34.60
2022-08-07T13:34:32.937Z,34.60
2022-08-07T13:36:26.602Z,34.60
2022-08-07T13:38:54.441Z,34.50
2022-08-07T13:41:21.222Z,34.40
2022-08-07T13:43:52.520Z,34.20
2022-08-07T13:46:28.907Z,34.10
2022-08-07T13:48:59.685Z,34.00
2022-08-07T13:51:28.112Z,33.90
2022-08-07T13:54:22.569Z,33.80
2022-08-07T13:56:52.122Z,34.00
2022-08-07T13:59:22.174Z,34.10
2022-08-07T14:01:51.363Z,34.30
2022-08-07T14:04:29.891Z,34.50
2022-08-07T14:07:02.694Z,34.70
2022-08-07T14:10:02.303Z,34.80
2022-08-07T14:12:16.764Z,34.90
2022-08-07T14:14:53.959Z,34.80
2022-08-07T14:18:12.432Z,34.80
2022-08-07T14:20:43.596Z,34.90
2022-08-07T14:22:53.318Z,35.00
2022-08-07T14:25:22.473Z,35.10
2022-08-07T14:28:20.978Z,34.90
2022-08-07T14:30:35.850Z,34.80
2022-08-07T14:33:07.214Z,34.80
2022-08-07T14:35:44.798Z,34.80
2022-08-07T14:38:30.562Z,34.90
2022-08-07T14:40:58.013Z,34.90
2022-08-07T14:43:58.429Z,34.90
2022-08-07T14:46:11.030Z,35.00
2022-08-07T14:48:43.923Z,34.90
2022-08-07T14:51:16.127Z,34.80
2022-08-07T14:54:08.558Z,34.70
2022-08-07T14:56:30.608Z,34.80
2022-08-07T14:58:57.113Z,34.80
2022-08-07T15:01:23.587Z,34.70
2022-08-07T15:03:52.192Z,34.70
2022-08-07T15:06:19.678Z,34.60
2022-08-07T15:08:50.410Z,34.50
2022-08-07T15:11:48.738Z,34.50
2022-08-07T15:14:10.143Z,34.30
2022-08-07T15:16:37.337Z,33.90
2022-08-07T15:19:03.804Z,33.60
2022-08-07T15:25:14.557Z,33.00
2022-08-07T15:27:06.551Z,32.70
2022-08-07T15:30:09.031Z,32.40
2022-08-07T15:32:39.119Z,32.30
2022-08-07T15:35:05.936Z,32.50
2022-08-07T15:40:34.941Z,32.40
2022-08-07T15:43:01.746Z,32.30
2022-08-07T15:48:14.941Z,32.00
2022-08-07T15:51:09.021Z,32.00
2022-08-07T15:53:52.065Z,32.00
2022-08-07T15:56:19.719Z,32.10
2022-08-07T15:58:52.184Z,32.00
2022-08-07T16:01:20.153Z,32.10
2022-08-07T16:03:57.294Z,32.30
2022-08-07T16:06:25.061Z,32.40
2022-08-07T16:08:53.013Z,32.40
2022-08-07T16:11:26.342Z,32.30
2022-08-07T16:13:59.128Z,32.10
2022-08-07T16:16:47.768Z,32.10
2022-08-07T16:19:13.067Z,32.10
2022-08-07T16:22:02.668Z,31.90
2022-08-07T16:24:34.232Z,31.80
2022-08-07T16:27:01.835Z,31.50
2022-08-07T16:30:10.235Z,31.20
2022-08-07T16:32:33.126Z,31.00
2022-08-07T16:35:01.208Z,30.80
2022-08-07T16:38:09.208Z,30.80
2022-08-07T16:40:23.417Z,30.60
2022-08-07T16:42:57.079Z,30.60
2022-08-07T16:46:34.751Z,30.70
2022-08-07T16:48:13.652Z,30.70
2022-08-07T16:50:52.782Z,30.50
2022-08-07T16:54:03.041Z,30.50
2022-08-07T16:56:10.852Z,30.40
2022-08-07T16:59:02.384Z,30.40
2022-08-07T17:01:23.806Z,30.50
2022-08-07T17:03:59.971Z,30.40
2022-08-07T17:06:30.683Z,30.30
2022-08-07T17:09:10.497Z,30.30
2022-08-07T17:12:01.798Z,30.10
2022-08-07T17:14:27.376Z,30.00
2022-08-07T17:16:56.188Z,29.80
2022-08-07T17:20:01.094Z,29.70
2022-08-07T17:22:10.500Z,29.60
2022-08-07T17:24:37.163Z,29.60
2022-08-07T17:27:03.640Z,29.50
2022-08-07T17:30:16.053Z,29.40
2022-08-07T17:32:30.809Z,29.30
2022-08-07T17:35:50.123Z,29.40
2022-08-07T17:38:06.077Z,29.40
2022-08-07T17:40:34.557Z,29.30
2022-08-07T17:43:01.065Z,29.10
2022-08-07T17:45:27.525Z,29.10
2022-08-07T17:47:54.540Z,29.10
2022-08-07T17:50:21.753Z,28.90
2022-08-07T17:52:48.339Z,28.80
2022-08-07T17:55:54.825Z,28.70
2022-08-07T17:58:04.217Z,28.70
2022-08-07T18:00:34.280Z,28.70
2022-08-07T18:03:18.082Z,28.50
2022-08-07T18:06:03.377Z,28.30
2022-08-07T18:08:31.537Z,28.00
2022-08-07T18:11:53.603Z,27.70
2022-08-07T18:13:44.489Z,27.50
2022-08-07T18:16:12.085Z,27.30
2022-08-07T18:21:01.263Z,27.20
2022-08-07T18:21:51.831Z,27.10
2022-08-07T18:24:12.081Z,26.90
2022-08-07T18:26:58.553Z,26.80
2022-08-07T18:30:05.928Z,26.60
2022-08-07T18:32:11.469Z,26.60
2022-08-07T18:35:00.992Z,26.30
2022-08-07T18:38:57.454Z,26.20
2022-08-07T18:40:38.615Z,26.10
2022-08-07T18:42:57.309Z,26.00
2022-08-07T18:45:44.819Z,25.80
2022-08-07T18:48:10.238Z,25.70
2022-08-07T18:50:56.700Z,25.60
2022-08-07T18:53:36.526Z,25.40
2022-08-07T18:56:03.777Z,25.30
2022-08-07T18:58:32.677Z,25.30
2022-08-07T19:01:00.885Z,25.20
2022-08-07T19:03:38.134Z,25.20
2022-08-07T19:06:05.640Z,25.10
2022-08-07T19:08:32.121Z,25.00
2022-08-07T19:10:59.156Z,24.90
2022-08-07T19:13:25.636Z,24.90
2022-08-07T19:16:05.658Z,24.80
2022-08-07T19:18:44.656Z,24.80
2022-08-07T19:21:13.943Z,24.70
2022-08-07T19:24:00.247Z,24.60
2022-08-07T19:26:28.725Z,24.50
2022-08-07T19:30:54.441Z,24.40
2022-08-07T19:32:10.875Z,24.30
2022-08-07T19:34:32.784Z,24.10
2022-08-07T19:37:09.875Z,24.00
2022-08-07T19:39:56.375Z,23.80
2022-08-07T19:42:25.144Z,23.70
2022-08-07T19:44:51.794Z,23.60
2022-08-07T19:47:18.260Z,23.50
2022-08-07T19:49:57.581Z,23.50
2022-08-07T19:52:25.473Z,23.40
2022-08-07T19:54:56.186Z,23.20
2022-08-07T19:58:03.626Z,23.10
2022-08-07T20:00:10.473Z,23.00
2022-08-07T20:02:39.039Z,22.90
2022-08-07T20:05:07.749Z,22.90
2022-08-07T20:07:47.704Z,22.90
2022-08-07T20:10:35.397Z,22.90
2022-08-07T20:13:06.193Z,22.80
2022-08-07T20:15:37.264Z,22.80
2022-08-07T20:18:04.422Z,22.70
2022-08-07T20:20:30.996Z,22.70
2022-08-07T20:22:57.469Z,22.70
2022-08-07T20:25:23.921Z,22.60
2022-08-07T20:27:54.148Z,22.50
2022-08-07T20:30:24.783Z,22.50
2022-08-07T20:32:51.960Z,22.60
2022-08-07T20:35:22.020Z,22.60
2022-08-07T20:37:58.964Z,22.50
2022-08-07T20:40:32.641Z,22.50
2022-08-07T20:43:00.974Z,22.50
2022-08-07T20:46:24.519Z,22.40
2022-08-07T20:48:28.852Z,22.40
2022-08-07T20:50:57.091Z,22.40
2022-08-07T20:53:25.887Z,22.30
2022-08-07T20:56:10.699Z,22.30
2022-08-07T20:58:37.172Z,22.30
2022-08-07T21:01:04.927Z,22.30
2022-08-07T21:03:31.612Z,22.30
2022-08-07T21:06:01.341Z,22.30
2022-08-07T21:08:37.548Z,22.30
2022-08-07T21:11:05.307Z,22.30
2022-08-07T21:13:57.130Z,22.30
2022-08-07T21:16:23.569Z,22.30
2022-08-07T21:18:53.289Z,22.20
2022-08-07T21:21:19.849Z,22.10
2022-08-07T21:23:53.611Z,22.10
2022-08-07T21:26:20.069Z,22.10
2022-08-07T21:28:50.845Z,22.10
2022-08-07T21:31:17.701Z,22.10
2022-08-07T21:33:58.074Z,22.10
2022-08-07T21:36:32.117Z,22.00
2022-08-07T21:38:59.147Z,21.90
2022-08-07T21:41:26.480Z,21.90
2022-08-07T21:43:55.779Z,21.90
2022-08-07T21:46:31.277Z,21.90
2022-08-07T21:48:58.437Z,21.90
2022-08-07T21:51:25.941Z,21.90
2022-08-07T21:53:53.526Z,21.90
2022-08-07T21:56:35.809Z,21.80
2022-08-07T21:59:03.476Z,21.80
2022-08-07T22:02:10.939Z,21.80
2022-08-07T22:04:17.733Z,21.70
2022-08-07T22:06:48.803Z,21.70
2022-08-07T22:09:16.394Z,21.60
2022-08-07T22:12:05.685Z,21.60
2022-08-07T22:14:35.117Z,21.50
2022-08-07T22:17:03.994Z,21.50
2022-08-07T22:19:30.659Z,21.40
2022-08-07T22:22:02.601Z,21.30
2022-08-07T22:24:35.148Z,21.30
2022-08-07T22:27:01.608Z,21.30
2022-08-07T22:29:37.696Z,21.20
2022-08-07T22:32:05.883Z,21.20
2022-08-07T22:34:35.990Z,21.10
2022-08-07T22:37:03.473Z,21.10
2022-08-07T22:39:29.978Z,21.10
2022-08-07T22:42:19.415Z,21.10
2022-08-07T22:44:58.164Z,21.10
2022-08-07T22:47:25.042Z,21.10
2022-08-07T22:49:55.092Z,21.10
2022-08-07T22:52:37.285Z,21.00
2022-08-07T22:55:17.135Z,21.00
2022-08-07T22:57:48.828Z,21.00
2022-08-07T23:00:16.441Z,20.90
2022-08-07T23:02:43.179Z,20.90
2022-08-07T23:06:09.777Z,20.80
2022-08-07T23:07:57.388Z,20.80
2022-08-07T23:10:36.477Z,20.80
2022-08-07T23:13:06.388Z,20.80
2022-08-07T23:16:05.824Z,20.80
2022-08-07T23:18:19.557Z,20.70
2022-08-07T23:20:53.546Z,20.60
2022-08-07T23:24:04.582Z,20.60
2022-08-07T23:26:06.728Z,20.50
2022-08-07T23:28:33.197Z,20.50
2022-08-07T23:31:06.575Z,20.50
2022-08-07T23:34:36.301Z,20.40
2022-08-07T23:36:29.042Z,20.40
2022-08-07T23:38:56.272Z,20.30
2022-08-07T23:41:24.394Z,20.30
2022-08-07T23:44:00.189Z,20.20
2022-08-07T23:46:27.497Z,20.10
2022-08-07T23:48:53.985Z,20.10
2022-08-07T23:52:59.746Z,20.10
2022-08-07T23:54:11.756Z,20.10
2022-08-07T23:56:54.147Z,20.00
